sensor_id;sensor_type;location;lat;lon;timestamp;pressure;altitude;pressure_sealevel;temperature;humidity
73341;BME280;61578;52.002;5.468;2022-11-14T00:00:23;101630.03;;;7.00;78.21
73341;BME280;61578;52.002;5.468;2022-11-14T00:00:55;101607.63;;;6.87;78.35
73341;BME280;61578;52.002;5.468;2022-11-14T00:01:26;101619.63;;;6.95;78.31
73341;BME280;61578;52.002;5.468;2022-11-14T00:01:57;101623.19;;;6.94;78.73
73341;BME280;61578;52.002;5.468;2022-11-14T00:02:27;101607.69;;;6.85;78.53
73341;BME280;61578;52.002;5.468;2022-11-14T00:02:59;101620.53;;;6.94;78.30
73341;BME280;61578;52.002;5.468;2022-11-14T00:03:31;101619.69;;;6.94;78.38
73341;BME280;61578;52.002;5.468;2022-11-14T00:04:01;101610.97;;;6.92;77.96
73341;BME280;61578;52.002;5.468;2022-11-14T00:04:32;101610.13;;;6.91;78.16
73341;BME280;61578;52.002;5.468;2022-11-14T00:05:04;101612.75;;;6.91;78.23
73341;BME280;61578;52.002;5.468;2022-11-14T00:05:42;101608.59;;;6.84;78.38
73341;BME280;61578;52.002;5.468;2022-11-14T00:06:14;101606.78;;;6.86;78.41
73341;BME280;61578;52.002;5.468;2022-11-14T00:06:44;101605.03;;;6.85;78.21
73341;BME280;61578;52.002;5.468;2022-11-14T00:07:15;101604.94;;;6.88;78.14
73341;BME280;61578;52.002;5.468;2022-11-14T00:07:46;101603.13;;;6.90;78.48
73341;BME280;61578;52.002;5.468;2022-11-14T00:08:22;101598.75;;;6.89;78.32
73341;BME280;61578;52.002;5.468;2022-11-14T00:08:54;101574.69;;;6.74;78.21
73341;BME280;61578;52.002;5.468;2022-11-14T00:09:26;101598.81;;;6.88;78.21
73341;BME280;61578;52.002;5.468;2022-11-14T00:09:57;101548.00;;;6.58;78.10
73341;BME280;61578;52.002;5.468;2022-11-14T00:10:28;101585.75;;;6.83;78.15
73341;BME280;61578;52.002;5.468;2022-11-14T00:10:58;101591.84;;;6.85;78.33
73341;BME280;61578;52.002;5.468;2022-11-14T00:11:29;101582.41;;;6.80;78.53
73341;BME280;61578;52.002;5.468;2022-11-14T00:12:00;101579.69;;;6.81;78.35
73341;BME280;61578;52.002;5.468;2022-11-14T00:12:30;101541.88;;;6.57;78.56
73341;BME280;61578;52.002;5.468;2022-11-14T00:13:01;101592.72;;;6.86;78.45
73341;BME280;61578;52.002;5.468;2022-11-14T00:13:32;101591.81;;;6.87;78.27
73341;BME280;61578;52.002;5.468;2022-11-14T00:14:02;101587.47;;;6.84;77.94
73341;BME280;61578;52.002;5.468;2022-11-14T00:14:33;101579.50;;;6.86;77.90
73341;BME280;61578;52.002;5.468;2022-11-14T00:15:05;101592.66;;;6.87;77.95
73341;BME280;61578;52.002;5.468;2022-11-14T00:15:37;101599.72;;;6.87;78.03
73341;BME280;61578;52.002;5.468;2022-11-14T00:16:08;101588.34;;;6.85;78.21
73341;BME280;61578;52.002;5.468;2022-11-14T00:16:38;101566.75;;;6.74;77.98
73341;BME280;61578;52.002;5.468;2022-11-14T00:17:09;101590.88;;;6.88;78.17
73341;BME280;61578;52.002;5.468;2022-11-14T00:17:40;101573.66;;;6.78;78.30
73341;BME280;61578;52.002;5.468;2022-11-14T00:18:11;101585.75;;;6.83;78.22
73341;BME280;61578;52.002;5.468;2022-11-14T00:18:42;101564.88;;;6.77;77.92
73341;BME280;61578;52.002;5.468;2022-11-14T00:19:12;101570.06;;;6.80;78.70
73341;BME280;61578;52.002;5.468;2022-11-14T00:19:43;101589.16;;;6.87;78.48
73341;BME280;61578;52.002;5.468;2022-11-14T00:20:14;101584.84;;;6.84;nan
73341;BME280;61578;52.002;5.468;2022-11-14T00:20:49;101590.03;;;6.87;78.24
73341;BME280;61578;52.002;5.468;2022-11-14T00:21:20;101592.66;;;6.87;77.86
73341;BME280;61578;52.002;5.468;2022-11-14T00:21:52;101609.38;;;6.88;78.39
73341;BME280;61578;52.002;5.468;2022-11-14T00:22:23;101598.84;;;6.86;78.25
73341;BME280;61578;52.002;5.468;2022-11-14T00:22:54;101538.41;;;6.55;78.27
73341;BME280;61578;52.002;5.468;2022-11-14T00:23:24;101592.75;;;6.84;78.01
73341;BME280;61578;52.002;5.468;2022-11-14T00:23:55;101586.00;;;6.77;77.82
73341;BME280;61578;52.002;5.468;2022-11-14T00:24:26;101602.50;;;6.82;78.25
73341;BME280;61578;52.002;5.468;2022-11-14T00:24:56;101599.09;;;6.80;78.18
73341;BME280;61578;52.002;5.468;2022-11-14T00:25:27;101537.13;;;6.42;78.22
73341;BME280;61578;52.002;5.468;2022-11-14T00:25:58;101601.84;;;6.77;78.48
73341;BME280;61578;52.002;5.468;2022-11-14T00:26:29;101604.53;;;6.76;78.42
73341;BME280;61578;52.002;5.468;2022-11-14T00:27:00;101609.91;;;6.73;78.45
73341;BME280;61578;52.002;5.468;2022-11-14T00:27:30;101611.75;;;6.71;78.52
73341;BME280;61578;52.002;5.468;2022-11-14T00:28:01;101610.19;;;6.65;78.91
73341;BME280;61578;52.002;5.468;2022-11-14T00:28:32;101603.88;;;6.69;78.63
73341;BME280;61578;52.002;5.468;2022-11-14T00:29:03;101597.00;;;6.65;78.54
73341;BME280;61578;52.002;5.468;2022-11-14T00:29:33;101604.84;;;6.67;78.92
73341;BME280;61578;52.002;5.468;2022-11-14T00:30:05;101598.75;;;6.64;79.09
73341;BME280;61578;52.002;5.468;2022-11-14T00:30:36;101596.25;;;6.61;79.35
73341;BME280;61578;52.002;5.468;2022-11-14T00:31:11;101560.31;;;6.33;79.29
73341;BME280;61578;52.002;5.468;2022-11-14T00:31:41;101537.88;;;6.21;79.18
73341;BME280;61578;52.002;5.468;2022-11-14T00:32:15;101595.63;;;6.53;79.24
73341;BME280;61578;52.002;5.468;2022-11-14T00:32:46;101599.28;;;6.51;79.42
73341;BME280;61578;52.002;5.468;2022-11-14T00:33:18;101599.31;;;6.49;79.25
73341;BME280;61578;52.002;5.468;2022-11-14T00:33:49;101594.09;;;6.48;79.25
73341;BME280;61578;52.002;5.468;2022-11-14T00:34:20;101589.88;;;6.42;79.78
73341;BME280;61578;52.002;5.468;2022-11-14T00:34:51;101592.47;;;6.44;79.78
73341;BME280;61578;52.002;5.468;2022-11-14T00:35:21;101587.19;;;6.44;79.51
73341;BME280;61578;52.002;5.468;2022-11-14T00:35:54;101577.72;;;6.38;79.72
73341;BME280;61578;52.002;5.468;2022-11-14T00:36:26;101589.81;;;6.44;79.75
73341;BME280;61578;52.002;5.468;2022-11-14T00:36:56;101603.00;;;6.44;80.05
73341;BME280;61578;52.002;5.468;2022-11-14T00:37:27;101604.78;;;6.43;79.80
73341;BME280;61578;52.002;5.468;2022-11-14T00:37:57;101598.66;;;6.43;80.10
73341;BME280;61578;52.002;5.468;2022-11-14T00:38:29;101532.28;;;6.05;79.59
73341;BME280;61578;52.002;5.468;2022-11-14T00:38:59;101536.56;;;6.09;79.97
73341;BME280;61578;52.002;5.468;2022-11-14T00:39:30;101592.66;;;6.39;79.59
73341;BME280;61578;52.002;5.468;2022-11-14T00:40:00;101596.94;;;6.42;79.92
73341;BME280;61578;52.002;5.468;2022-11-14T00:40:31;101599.75;;;6.37;79.85
73341;BME280;61578;52.002;5.468;2022-11-14T00:41:02;101591.88;;;6.36;79.95
73341;BME280;61578;52.002;5.468;2022-11-14T00:41:32;101568.69;;;6.20;79.99
73341;BME280;61578;52.002;5.468;2022-11-14T00:42:03;101592.88;;;6.32;79.71
73341;BME280;61578;52.002;5.468;2022-11-14T00:42:34;101599.09;;;6.31;80.09
73341;BME280;61578;52.002;5.468;2022-11-14T00:43:04;101587.59;;;6.32;80.05
73341;BME280;61578;52.002;5.468;2022-11-14T00:43:35;101591.19;;;6.31;80.47
73341;BME280;61578;52.002;5.468;2022-11-14T00:44:06;101584.38;;;6.23;79.99
73341;BME280;61578;52.002;5.468;2022-11-14T00:44:38;101607.94;;;6.30;80.68
73341;BME280;61578;52.002;5.468;2022-11-14T00:45:09;101598.28;;;6.28;80.66
73341;BME280;61578;52.002;5.468;2022-11-14T00:45:43;101580.94;;;6.21;80.53
73341;BME280;61578;52.002;5.468;2022-11-14T00:46:14;101583.41;;;6.26;80.54
73341;BME280;61578;52.002;5.468;2022-11-14T00:46:45;101597.53;;;6.25;80.53
73341;BME280;61578;52.002;5.468;2022-11-14T00:47:15;101593.94;;;6.27;80.37
73341;BME280;61578;52.002;5.468;2022-11-14T00:47:46;101596.66;;;6.24;80.53
73341;BME280;61578;52.002;5.468;2022-11-14T00:48:17;101594.19;;;6.20;80.60
73341;BME280;61578;52.002;5.468;2022-11-14T00:48:47;101598.38;;;6.25;80.49
73341;BME280;61578;52.002;5.468;2022-11-14T00:49:18;101599.28;;;6.24;80.49
73341;BME280;61578;52.002;5.468;2022-11-14T00:49:48;101590.53;;;6.24;80.67
73341;BME280;61578;52.002;5.468;2022-11-14T00:50:19;101588.75;;;6.24;80.88
73341;BME280;61578;52.002;5.468;2022-11-14T00:50:50;101593.09;;;6.25;80.69
73341;BME280;61578;52.002;5.468;2022-11-14T00:51:20;101601.03;;;6.25;80.49
73341;BME280;61578;52.002;5.468;2022-11-14T00:51:51;101592.47;;;6.19;80.33
73341;BME280;61578;52.002;5.468;2022-11-14T00:52:22;101543.28;;;5.91;80.26
73341;BME280;61578;52.002;5.468;2022-11-14T00:52:52;101595.09;;;6.19;80.45
73341;BME280;61578;52.002;5.468;2022-11-14T00:53:23;101598.66;;;6.18;80.65
73341;BME280;61578;52.002;5.468;2022-11-14T00:53:54;101598.69;;;6.16;80.96
73341;BME280;61578;52.002;5.468;2022-11-14T00:54:25;101590.75;;;6.18;81.07
73341;BME280;61578;52.002;5.468;2022-11-14T00:54:56;101586.44;;;6.15;80.91
73341;BME280;61578;52.002;5.468;2022-11-14T00:55:26;101588.97;;;6.18;80.77
73341;BME280;61578;52.002;5.468;2022-11-14T00:55:57;101578.66;;;6.11;80.83
73341;BME280;61578;52.002;5.468;2022-11-14T00:56:28;101573.59;;;6.05;81.20
73341;BME280;61578;52.002;5.468;2022-11-14T00:56:58;101593.50;;;6.13;80.94
73341;BME280;61578;52.002;5.468;2022-11-14T00:57:29;101579.75;;;6.05;80.82
73341;BME280;61578;52.002;5.468;2022-11-14T00:58:00;101591.06;;;6.09;81.48
73341;BME280;61578;52.002;5.468;2022-11-14T00:58:30;101592.00;;;6.06;81.35
73341;BME280;61578;52.002;5.468;2022-11-14T00:59:01;101595.56;;;6.05;80.99
73341;BME280;61578;52.002;5.468;2022-11-14T00:59:32;101586.72;;;6.06;80.95
73341;BME280;61578;52.002;5.468;2022-11-14T01:00:04;101586.72;;;6.06;81.22
73341;BME280;61578;52.002;5.468;2022-11-14T01:00:36;101590.22;;;6.07;81.07
73341;BME280;61578;52.002;5.468;2022-11-14T01:01:07;101528.09;;;5.72;81.17
73341;BME280;61578;52.002;5.468;2022-11-14T01:01:38;101523.75;;;5.71;81.48
73341;BME280;61578;52.002;5.468;2022-11-14T01:02:11;101525.66;;;5.67;81.55
73341;BME280;61578;52.002;5.468;2022-11-14T01:02:42;101598.25;;;6.04;81.67
73341;BME280;61578;52.002;5.468;2022-11-14T01:03:13;101585.16;;;6.01;81.54
73341;BME280;61578;52.002;5.468;2022-11-14T01:03:47;101578.97;;;6.02;81.53
73341;BME280;61578;52.002;5.468;2022-11-14T01:04:19;101572.84;;;6.01;81.90
73341;BME280;61578;52.002;5.468;2022-11-14T01:04:49;101584.19;;;6.03;81.62
73341;BME280;61578;52.002;5.468;2022-11-14T01:05:20;101576.28;;;6.03;81.88
73341;BME280;61578;52.002;5.468;2022-11-14T01:05:51;101582.47;;;6.02;81.54
73341;BME280;61578;52.002;5.468;2022-11-14T01:06:21;101576.41;;;6.00;81.79
73341;BME280;61578;52.002;5.468;2022-11-14T01:06:53;101571.06;;;6.02;81.26
73341;BME280;61578;52.002;5.468;2022-11-14T01:07:23;101522.75;;;5.75;81.17
73341;BME280;61578;52.002;5.468;2022-11-14T01:07:54;101571.06;;;6.02;81.46
73341;BME280;61578;52.002;5.468;2022-11-14T01:08:25;101578.09;;;6.01;81.58
73341;BME280;61578;52.002;5.468;2022-11-14T01:08:55;101516.97;;;5.64;81.17
73341;BME280;61578;52.002;5.468;2022-11-14T01:09:26;101565.91;;;5.99;81.76
73341;BME280;61578;52.002;5.468;2022-11-14T01:09:56;101567.69;;;5.98;81.23
73341;BME280;61578;52.002;5.468;2022-11-14T01:10:27;101515.09;;;5.67;81.50
73341;BME280;61578;52.002;5.468;2022-11-14T01:10:58;101577.25;;;6.01;81.65
73341;BME280;61578;52.002;5.468;2022-11-14T01:11:29;101558.16;;;5.94;81.33
73341;BME280;61578;52.002;5.468;2022-11-14T01:12:00;101569.28;;;6.02;81.24
73341;BME280;61578;52.002;5.468;2022-11-14T01:12:32;101568.44;;;6.02;81.64
73341;BME280;61578;52.002;5.468;2022-11-14T01:13:03;101567.56;;;6.01;81.46
73341;BME280;61578;52.002;5.468;2022-11-14T01:13:34;101566.66;;;6.02;81.48
73341;BME280;61578;52.002;5.468;2022-11-14T01:14:05;101544.97;;;5.94;81.34
73341;BME280;61578;52.002;5.468;2022-11-14T01:14:38;101539.75;;;5.93;81.78
73341;BME280;61578;52.002;5.468;2022-11-14T01:15:10;101556.22;;;5.99;81.60
73341;BME280;61578;52.002;5.468;2022-11-14T01:15:43;101559.78;;;5.98;81.28
73341;BME280;61578;52.002;5.468;2022-11-14T01:16:16;101554.56;;;5.97;81.55
73341;BME280;61578;52.002;5.468;2022-11-14T01:16:48;101564.28;;;5.95;81.68
73341;BME280;61578;52.002;5.468;2022-11-14T01:17:19;101558.09;;;5.96;82.00
73341;BME280;61578;52.002;5.468;2022-11-14T01:17:49;101538.34;;;5.81;81.62
73341;BME280;61578;52.002;5.468;2022-11-14T01:18:20;101550.47;;;5.88;81.80
73341;BME280;61578;52.002;5.468;2022-11-14T01:18:51;101551.09;;;5.95;81.51
73341;BME280;61578;52.002;5.468;2022-11-14T01:19:22;101500.31;;;5.63;81.53
73341;BME280;61578;52.002;5.468;2022-11-14T01:19:53;101548.41;;;5.96;81.82
73341;BME280;61578;52.002;5.468;2022-11-14T01:20:24;101544.97;;;5.94;81.48
73341;BME280;61578;52.002;5.468;2022-11-14T01:20:55;101566.00;;;5.96;81.34
73341;BME280;61578;52.002;5.468;2022-11-14T01:21:26;101546.69;;;5.95;81.59
73341;BME280;61578;52.002;5.468;2022-11-14T01:21:57;101547.59;;;5.94;81.82
73341;BME280;61578;52.002;5.468;2022-11-14T01:22:28;101546.78;;;5.92;81.63
73341;BME280;61578;52.002;5.468;2022-11-14T01:22:59;101554.66;;;5.94;82.10
73341;BME280;61578;52.002;5.468;2022-11-14T01:23:30;101499.25;;;5.69;81.49
73341;BME280;61578;52.002;5.468;2022-11-14T01:24:01;101556.31;;;5.96;81.59
73341;BME280;61578;52.002;5.468;2022-11-14T01:24:33;101536.19;;;5.94;81.49
73341;BME280;61578;52.002;5.468;2022-11-14T01:25:04;101544.91;;;5.96;81.72
73341;BME280;61578;52.002;5.468;2022-11-14T01:25:36;101547.59;;;5.94;81.48
73341;BME280;61578;52.002;5.468;2022-11-14T01:26:11;101542.44;;;5.91;81.66
73341;BME280;61578;52.002;5.468;2022-11-14T01:26:43;101520.84;;;5.80;81.44
73341;BME280;61578;52.002;5.468;2022-11-14T01:27:13;101482.16;;;5.54;81.50
73341;BME280;61578;52.002;5.468;2022-11-14T01:27:44;101519.97;;;5.79;81.80
73341;BME280;61578;52.002;5.468;2022-11-14T01:28:17;101526.84;;;5.83;82.10
73341;BME280;61578;52.002;5.468;2022-11-14T01:28:49;101540.78;;;5.87;81.47
73341;BME280;61578;52.002;5.468;2022-11-14T01:29:20;101543.44;;;5.87;81.98
73341;BME280;61578;52.002;5.468;2022-11-14T01:29:50;101544.34;;;5.86;82.05
73341;BME280;61578;52.002;5.468;2022-11-14T01:30:21;101546.09;;;5.85;81.68
73341;BME280;61578;52.002;5.468;2022-11-14T01:30:52;101539.97;;;5.85;81.94
73341;BME280;61578;52.002;5.468;2022-11-14T01:31:24;101512.66;;;5.61;81.77
73341;BME280;61578;52.002;5.468;2022-11-14T01:31:55;101540.88;;;5.84;81.84
73341;BME280;61578;52.002;5.468;2022-11-14T01:32:26;101537.44;;;5.82;82.07
73341;BME280;61578;52.002;5.468;2022-11-14T01:32:57;101547.03;;;5.84;81.92
73341;BME280;61578;52.002;5.468;2022-11-14T01:33:28;101560.19;;;5.84;81.92
73341;BME280;61578;52.002;5.468;2022-11-14T01:33:58;101537.44;;;5.82;81.75
73341;BME280;61578;52.002;5.468;2022-11-14T01:34:29;101541.91;;;5.80;82.16
73341;BME280;61578;52.002;5.468;2022-11-14T01:35:00;101541.97;;;5.78;82.02
73341;BME280;61578;52.002;5.468;2022-11-14T01:35:35;101543.81;;;5.75;82.11
73341;BME280;61578;52.002;5.468;2022-11-14T01:36:08;101483.44;;;5.42;82.07
73341;BME280;61578;52.002;5.468;2022-11-14T01:36:39;101535.09;;;5.73;82.46
73341;BME280;61578;52.002;5.468;2022-11-14T01:37:10;101517.13;;;5.59;82.18
73341;BME280;61578;52.002;5.468;2022-11-14T01:37:40;101532.47;;;5.73;82.42
73341;BME280;61578;52.002;5.468;2022-11-14T01:38:13;101530.75;;;5.72;82.57
73341;BME280;61578;52.002;5.468;2022-11-14T01:38:45;101547.28;;;5.77;82.48
73341;BME280;61578;52.002;5.468;2022-11-14T01:39:16;101538.47;;;5.78;82.55
73341;BME280;61578;52.002;5.468;2022-11-14T01:39:47;101530.56;;;5.78;82.33
73341;BME280;61578;52.002;5.468;2022-11-14T01:40:18;101535.78;;;5.79;82.79
73341;BME280;61578;52.002;5.468;2022-11-14T01:40:49;101478.84;;;5.49;82.23
73341;BME280;61578;52.002;5.468;2022-11-14T01:41:20;101507.91;;;5.72;81.95
73341;BME280;61578;52.002;5.468;2022-11-14T01:41:51;101538.25;;;5.84;82.27
73341;BME280;61578;52.002;5.468;2022-11-14T01:42:22;101533.84;;;5.84;82.17
73341;BME280;61578;52.002;5.468;2022-11-14T01:43:46;101471.72;;;5.51;81.92
73341;BME280;61578;52.002;5.468;2022-11-14T01:44:58;101524.38;;;5.79;81.87
73341;BME280;61578;52.002;5.468;2022-11-14T01:46:02;101519.28;;;5.73;82.36
73341;BME280;61578;52.002;5.468;2022-11-14T01:46:38;101511.56;;;5.68;82.33
73341;BME280;61578;52.002;5.468;2022-11-14T01:47:17;101527.38;;;5.68;82.15
73341;BME280;61578;52.002;5.468;2022-11-14T01:47:50;101515.97;;;5.68;82.75
73341;BME280;61578;52.002;5.468;2022-11-14T01:49:19;101507.16;;;5.69;82.80
73341;BME280;61578;52.002;5.468;2022-11-14T01:49:58;101512.44;;;5.69;82.97
73341;BME280;61578;52.002;5.468;2022-11-14T01:50:33;101499.31;;;5.67;82.65
73341;BME280;61578;52.002;5.468;2022-11-14T01:51:34;101506.25;;;5.70;82.83
73341;BME280;61578;52.002;5.468;2022-11-14T01:53:01;101493.16;;;5.67;82.53
73341;BME280;61578;52.002;5.468;2022-11-14T01:53:32;101436.38;;;5.32;82.44
73341;BME280;61578;52.002;5.468;2022-11-14T01:54:08;101496.50;;;5.72;82.65
73341;BME280;61578;52.002;5.468;2022-11-14T01:54:52;101440.56;;;5.39;82.54
73341;BME280;61578;52.002;5.468;2022-11-14T01:55:25;101495.63;;;5.71;82.71
73341;BME280;61578;52.002;5.468;2022-11-14T01:56:00;101493.84;;;5.72;82.21
73341;BME280;61578;52.002;5.468;2022-11-14T01:56:45;101491.34;;;5.69;82.18
73341;BME280;61578;52.002;5.468;2022-11-14T01:57:31;101498.25;;;5.71;82.37
73341;BME280;61578;52.002;5.468;2022-11-14T01:58:09;101498.34;;;5.70;82.21
73341;BME280;61578;52.002;5.468;2022-11-14T01:58:45;101491.34;;;5.69;82.33
73341;BME280;61578;52.002;5.468;2022-11-14T01:59:28;101501.97;;;5.66;82.11
73341;BME280;61578;52.002;5.468;2022-11-14T02:00:07;101450.38;;;5.34;82.31
73341;BME280;61578;52.002;5.468;2022-11-14T02:00:42;101490.03;;;5.55;82.66
73341;BME280;61578;52.002;5.468;2022-11-14T02:01:13;101493.47;;;5.58;82.67
73341;BME280;61578;52.002;5.468;2022-11-14T02:01:48;101494.22;;;5.61;82.87
73341;BME280;61578;52.002;5.468;2022-11-14T02:02:23;101489.97;;;5.57;82.56
73341;BME280;61578;52.002;5.468;2022-11-14T02:02:56;101477.16;;;5.46;82.72
73341;BME280;61578;52.002;5.468;2022-11-14T02:03:27;101493.63;;;5.53;82.83
73341;BME280;61578;52.002;5.468;2022-11-14T02:04:00;101490.13;;;5.52;83.08
73341;BME280;61578;52.002;5.468;2022-11-14T02:04:38;101404.09;;;4.99;83.20
73341;BME280;61578;52.002;5.468;2022-11-14T02:05:15;101483.44;;;5.42;82.79
73341;BME280;61578;52.002;5.468;2022-11-14T02:05:49;101491.25;;;5.45;83.11
73341;BME280;61578;52.002;5.468;2022-11-14T02:06:24;101484.38;;;5.40;83.36
73341;BME280;61578;52.002;5.468;2022-11-14T02:07:02;101496.47;;;5.47;83.44
73341;BME280;61578;52.002;5.468;2022-11-14T02:07:38;101505.22;;;5.47;83.14
73341;BME280;61578;52.002;5.468;2022-11-14T02:08:13;101496.47;;;5.47;83.53
73341;BME280;61578;52.002;5.468;2022-11-14T02:08:45;101500.81;;;5.48;83.32
73341;BME280;61578;52.002;5.468;2022-11-14T02:09:17;101494.69;;;5.47;83.05
73341;BME280;61578;52.002;5.468;2022-11-14T02:09:48;101497.31;;;5.47;83.60
73341;BME280;61578;52.002;5.468;2022-11-14T02:10:20;101487.78;;;5.43;83.37
73341;BME280;61578;52.002;5.468;2022-11-14T02:10:51;101488.66;;;5.44;83.45
73341;BME280;61578;52.002;5.468;2022-11-14T02:11:22;101449.88;;;5.21;83.45
73341;BME280;61578;52.002;5.468;2022-11-14T02:11:57;101432.66;;;5.11;83.83
73341;BME280;61578;52.002;5.468;2022-11-14T02:12:31;101482.81;;;5.34;83.93
73341;BME280;61578;52.002;5.468;2022-11-14T02:13:03;101480.91;;;5.39;83.50
73341;BME280;61578;52.002;5.468;2022-11-14T02:13:34;101479.97;;;5.40;83.90
73341;BME280;61578;52.002;5.468;2022-11-14T02:14:05;101487.00;;;5.40;83.57
73341;BME280;61578;52.002;5.468;2022-11-14T02:14:37;101484.38;;;5.40;83.73
73341;BME280;61578;52.002;5.468;2022-11-14T02:15:10;101474.84;;;5.37;84.08
73341;BME280;61578;52.002;5.468;2022-11-14T02:15:43;101479.22;;;5.37;83.77
73341;BME280;61578;52.002;5.468;2022-11-14T02:16:14;101434.56;;;5.07;83.90
73341;BME280;61578;52.002;5.468;2022-11-14T02:16:45;101476.56;;;5.38;83.71
73341;BME280;61578;52.002;5.468;2022-11-14T02:17:17;101477.41;;;5.39;83.82
73341;BME280;61578;52.002;5.468;2022-11-14T02:17:48;101478.38;;;5.36;83.48
73341;BME280;61578;52.002;5.468;2022-11-14T02:18:19;101477.50;;;5.36;83.90
73341;BME280;61578;52.002;5.468;2022-11-14T02:18:50;101487.19;;;5.35;83.54
73341;BME280;61578;52.002;5.468;2022-11-14T02:19:20;101478.56;;;5.30;83.89
73341;BME280;61578;52.002;5.468;2022-11-14T02:20:18;101473.19;;;5.33;83.90
73341;BME280;61578;52.002;5.468;2022-11-14T02:21:01;101472.34;;;5.33;84.14
73341;BME280;61578;52.002;5.468;2022-11-14T02:21:32;101468.78;;;5.34;84.03
73341;BME280;61578;52.002;5.468;2022-11-14T02:22:03;101469.66;;;5.34;83.89
73341;BME280;61578;52.002;5.468;2022-11-14T02:22:33;101476.66;;;5.35;84.15
73341;BME280;61578;52.002;5.468;2022-11-14T02:23:04;101468.78;;;5.34;83.90
73341;BME280;61578;52.002;5.468;2022-11-14T02:23:35;101411.09;;;5.00;84.20
73341;BME280;61578;52.002;5.468;2022-11-14T02:24:09;101465.47;;;5.29;84.37
73341;BME280;61578;52.002;5.468;2022-11-14T02:24:41;101468.66;;;5.38;84.04
73341;BME280;61578;52.002;5.468;2022-11-14T02:25:16;101467.94;;;5.33;84.08
73341;BME280;61578;52.002;5.468;2022-11-14T02:25:48;101466.03;;;5.38;83.92
73341;BME280;61578;52.002;5.468;2022-11-14T02:26:21;101469.75;;;5.31;83.99
73341;BME280;61578;52.002;5.468;2022-11-14T02:26:52;101463.38;;;5.38;83.70
73341;BME280;61578;52.002;5.468;2022-11-14T02:27:23;101466.03;;;5.38;83.76
73341;BME280;61578;52.002;5.468;2022-11-14T02:27:56;101464.25;;;5.39;83.84
73341;BME280;61578;52.002;5.468;2022-11-14T02:28:29;101456.50;;;5.34;83.95
73341;BME280;61578;52.002;5.468;2022-11-14T02:28:59;101462.47;;;5.39;83.85
73341;BME280;61578;52.002;5.468;2022-11-14T02:29:32;101475.56;;;5.41;83.85
73341;BME280;61578;52.002;5.468;2022-11-14T02:30:12;101465.91;;;5.41;83.80
73341;BME280;61578;52.002;5.468;2022-11-14T02:30:48;101465.84;;;5.43;83.71
73341;BME280;61578;52.002;5.468;2022-11-14T02:31:19;101471.16;;;5.41;83.94
73341;BME280;61578;52.002;5.468;2022-11-14T02:31:49;101468.50;;;5.43;83.78
73341;BME280;61578;52.002;5.468;2022-11-14T02:32:20;101463.25;;;5.41;83.48
73341;BME280;61578;52.002;5.468;2022-11-14T02:32:50;101469.44;;;5.40;83.59
73341;BME280;61578;52.002;5.468;2022-11-14T02:33:21;101478.28;;;5.39;83.42
73341;BME280;61578;52.002;5.468;2022-11-14T02:33:52;101465.16;;;5.38;83.74
73341;BME280;61578;52.002;5.468;2022-11-14T02:34:23;101473.09;;;5.36;83.99
73341;BME280;61578;52.002;5.468;2022-11-14T02:34:54;101467.03;;;5.34;84.26
73341;BME280;61578;52.002;5.468;2022-11-14T02:35:24;101465.28;;;5.33;84.13
73341;BME280;61578;52.002;5.468;2022-11-14T02:35:55;101465.34;;;5.32;83.71
73341;BME280;61578;52.002;5.468;2022-11-14T02:36:26;101469.75;;;5.31;83.74
73341;BME280;61578;52.002;5.468;2022-11-14T02:36:56;101464.53;;;5.30;83.84
73341;BME280;61578;52.002;5.468;2022-11-14T02:37:27;101460.19;;;5.29;84.11
73341;BME280;61578;52.002;5.468;2022-11-14T02:37:58;101469.03;;;5.26;84.37
73341;BME280;61578;52.002;5.468;2022-11-14T02:38:29;101468.13;;;5.27;84.15
73341;BME280;61578;52.002;5.468;2022-11-14T02:38:59;101469.97;;;5.25;84.20
73341;BME280;61578;52.002;5.468;2022-11-14T02:39:30;101459.47;;;5.24;84.09
73341;BME280;61578;52.002;5.468;2022-11-14T02:40:01;101463.91;;;5.22;84.00
73341;BME280;61578;52.002;5.468;2022-11-14T02:40:32;101465.69;;;5.21;84.02
73341;BME280;61578;52.002;5.468;2022-11-14T02:41:02;101473.75;;;5.16;84.20
73341;BME280;61578;52.002;5.468;2022-11-14T02:41:33;101464.81;;;5.21;84.26
73341;BME280;61578;52.002;5.468;2022-11-14T02:42:04;101464.91;;;5.19;84.48
73341;BME280;61578;52.002;5.468;2022-11-14T02:42:34;101464.91;;;5.19;84.34
73341;BME280;61578;52.002;5.468;2022-11-14T02:43:05;101461.53;;;5.14;84.25
73341;BME280;61578;52.002;5.468;2022-11-14T02:43:36;101463.19;;;5.18;84.54
73341;BME280;61578;52.002;5.468;2022-11-14T02:44:06;101462.47;;;5.11;84.43
73341;BME280;61578;52.002;5.468;2022-11-14T02:44:37;101459.81;;;5.13;84.23
73341;BME280;61578;52.002;5.468;2022-11-14T02:45:10;101455.53;;;5.09;84.33
73341;BME280;61578;52.002;5.468;2022-11-14T02:45:42;101465.94;;;5.13;84.62
73341;BME280;61578;52.002;5.468;2022-11-14T02:46:13;101424.59;;;4.89;84.70
73341;BME280;61578;52.002;5.468;2022-11-14T02:46:44;101453.94;;;5.05;84.96
73341;BME280;61578;52.002;5.468;2022-11-14T02:47:15;101456.31;;;5.12;85.08
73341;BME280;61578;52.002;5.468;2022-11-14T02:47:46;101465.03;;;5.14;84.87
73341;BME280;61578;52.002;5.468;2022-11-14T02:48:17;101465.03;;;5.14;84.45
73341;BME280;61578;52.002;5.468;2022-11-14T02:48:48;101460.63;;;5.15;84.65
73341;BME280;61578;52.002;5.468;2022-11-14T02:49:18;101455.44;;;5.12;84.70
73341;BME280;61578;52.002;5.468;2022-11-14T02:49:50;101458.00;;;5.15;84.42
73341;BME280;61578;52.002;5.468;2022-11-14T02:50:20;101468.53;;;5.15;84.76
73341;BME280;61578;52.002;5.468;2022-11-14T02:50:51;101460.63;;;5.15;84.41
73341;BME280;61578;52.002;5.468;2022-11-14T02:51:22;101455.50;;;5.10;84.50
73341;BME280;61578;52.002;5.468;2022-11-14T02:51:52;101456.28;;;5.14;84.25
73341;BME280;61578;52.002;5.468;2022-11-14T02:52:23;101464.16;;;5.14;84.32
73341;BME280;61578;52.002;5.468;2022-11-14T02:52:54;101460.66;;;5.13;84.29
73341;BME280;61578;52.002;5.468;2022-11-14T02:53:25;101454.75;;;5.07;84.63